Date,TemperatureHighF,TemperatureAvgF,TemperatureLowF,DewpointHighF,DewpointAvgF,DewpointLowF,HumidityHigh,HumidityAvg,HumidityLow,PressureMaxIn,PressureMinIn,WindSpeedMaxMPH,WindSpeedAvgMPH,GustSpeedMaxMPH,PrecipitationSumIn
2013-1-1,37.5,33.9,22.8,29.0,22.7,11.0,75,64,53,30.05,29.86,15,3,15,0.01
2013-1-2,30.4,24.6,17.4,18.0,13.2,10.0,73,62,51,30.20,30.02,12,2,24,0.00
2013-1-3,32.5,25.0,12.9,19.0,14.4,7.0,79,65,46,30.23,30.09,5,1,10,0.00
2013-1-4,37.9,32.6,27.8,25.0,21.7,19.0,75,65,53,30.10,29.96,11,2,17,0.00
2013-1-5,42.3,34.4,27.6,24.0,22.0,18.0,79,62,48,30.30,30.04,10,3,18,0.00
2013-1-6,46.3,36.4,29.8,31.0,27.1,23.0,88,70,49,30.25,29.99,7,1,12,0.00
2013-1-7,44.0,36.2,26.9,30.0,25.1,20.0,81,66,43,30.42,30.09,9,2,17,0.00
2013-1-8,48.6,35.5,23.7,31.0,27.1,21.0,92,73,50,30.45,30.36,8,1,10,0.00
2013-1-9,45.5,36.8,26.0,37.0,31.1,24.0,93,80,63,30.41,30.16,10,1,19,0.00
2013-1-10,47.6,41.2,34.3,32.0,25.5,23.0,69,54,39,30.57,30.25,13,3,20,0.00
2013-1-11,39.7,36.2,30.9,39.0,30.9,24.0,98,81,66,30.57,30.14,3,0,6,0.39
2013-1-12,45.6,43.3,40.1,44.0,42.6,40.0,98,97,95,30.20,30.11,2,1,4,0.04
2013-1-13,46.1,44.3,42.6,46.0,44.2,42.0,99,99,98,30.18,30.03,4,0,5,0.03
2013-1-14,54.3,47.5,36.1,52.0,42.1,31.0,100,83,52,30.32,29.93,8,2,14,0.11
2013-1-15,36.9,34.9,32.9,33.0,27.7,25.0,93,75,65,30.38,30.25,6,1,8,0.12
2013-1-16,32.9,31.4,29.5,32.0,30.4,28.0,98,96,88,30.27,29.83,4,1,6,0.00
2013-1-17,42.5,36.5,30.6,32.0,27.9,22.0,98,72,57,30.13,29.94,8,2,15,0.30
2013-1-18,30.1,24.8,20.4,22.0,10.7,4.0,72,56,37,30.51,30.05,8,2,14,0.00
2013-1-19,46.7,36.8,25.8,30.0,22.9,12.0,73,58,47,30.42,29.94,9,3,19,0.01
2013-1-20,51.6,40.6,27.5,31.0,23.9,10.0,81,55,26,30.05,29.70,12,4,27,0.00
2013-1-21,28.8,25.8,21.0,19.0,13.3,8.0,78,60,47,30.12,29.86,8,1,11,0.00
2013-1-22,23.9,17.4,10.3,16.0,0.4,-9.0,73,48,33,30.23,29.86,16,4,24,0.00
2013-1-23,18.0,11.5,7.0,1.0,-3.8,-7.0,74,52,35,30.28,30.19,12,2,15,0.00
2013-1-24,21.9,13.6,5.6,4.0,-0.0,-3.0,84,57,34,30.41,30.17,16,4,24,0.00
2013-1-25,23.4,16.0,10.7,15.0,5.3,-1.0,92,65,43,30.44,30.10,8,2,21,0.00
2013-1-26,28.2,18.5,10.8,12.0,7.7,5.0,92,65,39,30.40,30.08,13,3,18,0.00
2013-1-27,34.2,24.4,16.1,12.0,9.6,7.0,76,55,38,30.55,30.40,10,2,13,0.00
2013-1-28,32.4,28.3,21.5,32.0,23.5,12.0,97,83,62,30.53,30.04,6,1,12,0.16
2013-1-29,50.3,38.8,32.3,43.0,36.7,32.0,98,92,77,30.18,30.03,4,1,5,0.30
2013-1-30,54.3,46.1,36.5,54.0,45.5,36.0,99,98,94,30.12,29.38,2,0,7,0.25
2013-1-31,59.7,43.6,27.6,58.0,30.0,10.0,99,62,36,29.79,29.05,20,7,32,0.91
2013-2-1,29.5,25.9,21.5,16.0,10.5,6.0,73,53,38,30.25,29.79,17,4,30,0.00
2013-2-2,27.7,21.8,16.1,20.0,10.7,5.0,90,64,38,30.33,30.09,10,2,20,0.00
2013-2-3,30.2,24.0,19.0,20.0,17.9,16.0,94,78,58,30.09,29.83,4,1,7,0.03
2013-2-4,29.0,25.0,20.5,20.0,10.5,7.0,85,55,41,30.00,29.84,13,4,18,0.00
2013-2-5,28.4,26.3,23.5,25.0,21.5,12.0,92,82,58,30.02,29.94,3,0,4,0.00
2013-2-6,37.7,30.6,24.3,27.0,19.0,2.0,96,66,33,30.38,29.95,9,3,17,0.02
2013-2-7,29.7,24.8,18.5,19.0,9.7,2.0,70,53,37,30.55,30.38,3,0,5,0.00
2013-2-8,31.7,29.6,25.1,30.0,27.0,20.0,97,90,72,30.38,29.68,9,3,15,0.00
2013-2-9,32.7,26.1,18.4,25.0,14.6,4.0,96,66,35,30.37,29.79,11,4,19,0.00
2013-2-10,37.5,24.0,10.0,20.0,9.9,4.0,80,57,34,30.52,30.36,4,1,9,0.01
2013-2-11,40.7,34.7,26.8,41.0,32.4,20.0,99,91,73,30.36,29.70,2,0,8,0.05
2013-2-12,43.7,38.8,34.2,37.0,27.6,23.0,96,65,50,29.99,29.74,12,2,20,0.00
2013-2-13,44.1,35.2,25.5,31.0,24.8,21.0,96,68,47,29.98,29.73,4,1,6,0.00
2013-2-14,46.0,35.8,26.4,31.0,28.1,25.0,96,76,47,30.02,29.75,4,0,8,0.10
2013-2-15,53.7,41.2,29.2,34.0,29.9,26.0,95,67,38,30.04,29.93,6,1,12,0.00
2013-2-16,36.9,33.0,28.7,33.0,25.1,14.0,94,74,55,30.00,29.78,8,2,11,0.05
2013-2-17,29.6,23.8,15.0,14.0,5.1,-1.0,56,45,32,30.02,29.70,22,6,31,0.00
2013-2-18,33.3,23.6,14.8,14.0,6.1,1.0,60,48,33,30.26,30.02,16,4,29,0.00
2013-2-19,44.7,34.9,22.7,40.0,27.3,14.0,96,75,52,30.23,29.71,12,1,24,0.29
2013-2-20,36.0,29.0,23.3,22.0,14.0,9.0,65,54,43,30.00,29.73,14,5,29,0.00
2013-2-21,31.9,25.7,22.4,14.0,12.3,10.0,70,58,47,30.34,30.00,16,5,25,0.00
2013-2-22,37.4,30.3,22.2,28.0,21.3,14.0,81,70,54,30.44,30.31,7,2,11,0.00
2013-2-23,39.1,35.0,31.9,38.0,33.8,28.0,98,95,81,30.31,29.85,9,1,9,0.14
2013-2-24,45.1,37.0,31.8,39.0,31.7,23.0,98,82,60,30.00,29.78,10,3,20,0.01
2013-2-25,43.7,37.0,29.9,29.0,26.3,22.0,79,66,52,30.27,30.00,6,1,11,0.00
2013-2-26,41.1,36.3,30.3,33.0,29.5,26.0,94,77,66,30.33,29.97,8,2,15,0.17
2013-2-27,44.4,40.1,34.3,43.0,38.9,33.0,98,95,89,29.96,29.54,15,3,20,0.99
2013-2-28,47.5,41.1,36.9,38.0,34.4,30.0,96,78,57,29.65,29.57,9,1,9,0.00
2013-3-1,43.9,37.8,33.9,31.0,29.0,24.0,85,71,53,29.80,29.63,8,3,13,0.00
2013-3-2,38.1,34.0,29.0,27.0,24.2,23.0,87,68,59,29.81,29.73,8,3,14,0.00
2013-3-3,39.4,30.8,26.9,22.0,18.9,17.0,76,62,45,29.79,29.69,10,4,18,0.00
2013-3-4,37.2,31.0,25.4,21.0,19.3,16.0,72,62,50,29.94,29.79,13,4,22,0.00
2013-3-5,47.1,37.1,29.5,28.0,24.4,20.0,73,61,45,30.05,29.93,8,2,15,0.00
2013-3-6,40.6,38.1,35.1,36.0,30.5,27.0,89,74,66,30.02,29.91,15,4,19,0.04
2013-3-7,37.2,34.2,31.4,32.0,29.4,26.0,97,83,67,30.12,29.97,16,5,17,0.03
2013-3-8,40.7,34.2,29.6,34.0,30.4,27.0,97,87,65,30.23,30.04,13,4,16,0.15
2013-3-9,54.1,42.6,33.3,26.0,21.9,14.0,67,47,23,30.34,30.22,8,3,14,0.00
2013-3-10,51.3,39.0,28.2,36.0,31.1,20.0,94,75,51,30.42,30.32,8,1,9,0.00
2013-3-11,52.8,44.4,37.0,47.0,40.1,34.0,94,85,67,30.35,30.12,7,1,13,0.00
2013-3-12,53.4,49.4,41.6,52.0,47.2,36.0,97,92,79,30.11,29.69,8,3,21,1.29
2013-3-13,47.8,40.5,32.8,36.0,29.5,21.0,91,67,35,29.91,29.81,7,2,16,0.00
2013-3-14,38.0,32.0,26.2,26.0,12.3,5.0,67,46,26,29.98,29.87,14,6,29,0.00
2013-3-15,43.0,35.0,27.0,30.0,19.0,8.0,66,53,38,29.99,29.75,12,4,21,0.00
2013-3-16,38.2,32.7,30.1,29.0,24.5,19.0,92,73,53,29.94,29.82,4,1,9,0.02
2013-3-17,36.6,31.3,25.8,28.0,17.6,11.0,88,59,40,30.34,29.95,9,2,14,0.01
2013-3-18,33.1,28.3,22.8,30.0,16.0,7.0,97,63,45,30.45,30.07,6,2,11,0.00
2013-3-19,41.1,35.1,30.8,35.0,32.3,25.0,97,90,70,30.07,29.73,6,2,16,0.64
2013-3-20,42.4,35.1,28.2,25.0,19.9,17.0,72,56,37,29.90,29.82,17,2,21,0.01
2013-3-21,38.1,32.8,28.7,27.0,16.3,11.0,86,52,35,29.87,29.66,10,3,17,0.00
2013-3-22,38.9,32.4,26.1,23.0,17.9,13.0,71,56,44,29.90,29.75,10,3,18,0.00
2013-3-23,43.6,37.0,31.1,23.0,20.1,18.0,63,52,38,29.96,29.84,16,4,24,0.00
2013-3-24,45.5,37.7,29.1,24.0,21.8,19.0,68,54,41,29.97,29.74,9,2,15,0.00
2013-3-25,41.9,38.5,35.3,33.0,27.6,24.0,81,66,50,29.74,29.49,11,2,14,0.00
2013-3-26,50.3,41.3,34.7,31.0,27.4,25.0,74,59,41,29.89,29.62,9,2,13,0.01
2013-3-27,50.6,42.1,34.2,30.0,26.0,21.0,71,54,34,29.99,29.88,10,4,18,0.00
2013-3-28,47.7,42.2,36.5,35.0,30.1,28.0,76,63,53,30.13,29.98,12,4,13,0.00
2013-3-29,52.1,45.1,38.8,30.0,28.5,26.0,69,54,38,30.16,30.08,10,3,15,0.00
2013-3-30,57.1,45.8,37.0,30.0,25.5,19.0,74,49,23,30.19,30.09,11,2,15,0.00
2013-3-31,54.7,44.1,31.6,43.0,31.6,21.0,96,63,35,30.16,29.71,9,2,13,0.21
2013-4-1,61.1,45.3,34.9,46.0,35.7,12.0,98,73,35,29.93,29.63,12,3,22,0.01
2013-4-2,41.9,35.3,29.6,17.0,12.4,8.0,59,40,27,30.11,29.93,17,4,28,0.00
2013-4-3,44.5,36.6,30.1,15.0,12.4,9.0,53,38,26,30.33,30.10,12,4,22,0.00
2013-4-4,54.6,40.5,27.3,31.0,20.0,14.0,63,45,26,30.41,30.10,8,2,17,0.00
2013-4-5,61.1,47.0,38.3,29.0,22.8,15.0,66,42,20,30.09,29.75,13,3,19,0.00
2013-4-6,51.0,41.3,33.0,28.0,14.4,4.0,71,37,15,30.33,30.02,10,3,14,0.00
2013-4-7,55.0,46.5,34.6,43.0,35.1,25.0,87,66,41,30.33,30.02,12,3,17,0.00
2013-4-8,74.0,57.3,42.4,46.0,42.1,38.0,96,62,27,30.11,30.01,9,2,12,0.00
2013-4-9,79.4,66.5,48.4,52.0,43.6,36.0,91,49,22,30.02,29.92,15,3,21,0.00
2013-4-10,71.0,61.1,50.8,56.0,50.2,41.0,97,70,43,29.96,29.84,7,2,16,0.67
2013-4-11,62.1,53.1,43.7,57.0,46.0,36.0,97,79,55,30.08,29.81,7,2,9,0.03
2013-4-12,45.5,41.4,38.6,40.0,37.8,33.0,97,88,68,30.07,29.76,15,4,20,0.60
2013-4-13,57.3,47.5,37.9,41.0,36.1,32.0,97,69,41,29.99,29.79,10,2,14,0.03
2013-4-14,54.1,49.3,44.0,36.0,30.1,26.0,67,49,34,30.25,29.99,10,2,20,0.00
2013-4-15,57.9,47.8,37.9,34.0,31.0,27.0,73,54,39,30.40,30.26,8,2,11,0.00
2013-4-16,62.7,54.9,44.5,54.0,47.3,35.0,83,76,66,30.40,30.13,9,2,14,0.00
2013-4-17,67.3,60.1,51.8,56.0,43.6,34.0,90,58,33,30.31,30.14,8,2,9,0.00
2013-4-18,59.3,52.6,45.1,52.0,42.3,34.0,92,70,42,30.37,30.14,9,2,12,0.00
2013-4-19,72.0,62.8,53.7,63.0,58.9,52.0,98,87,72,30.13,29.66,8,2,14,0.38
2013-4-20,61.1,51.7,42.7,59.0,35.1,24.0,94,57,30,30.33,29.69,11,3,18,0.18
2013-4-21,52.0,43.1,32.9,27.0,21.7,18.0,66,44,27,30.65,30.34,11,2,11,0.00
2013-4-22,53.0,45.0,35.3,35.0,29.7,22.0,85,58,32,30.71,30.54,8,2,14,0.00
2013-4-23,51.3,43.4,37.6,41.0,36.6,31.0,90,77,68,30.53,30.15,5,2,8,0.00
2013-4-24,70.5,52.8,36.4,51.0,44.3,35.0,97,75,49,30.15,29.85,10,2,13,0.00
2013-4-25,63.5,54.3,44.3,53.0,30.4,20.0,88,45,19,30.29,29.88,10,3,22,0.00
2013-4-26,65.2,53.6,39.6,35.0,30.6,19.0,78,46,18,30.45,30.29,7,2,14,0.00
2013-4-27,68.0,56.0,42.1,35.0,29.9,27.0,63,39,23,30.46,30.30,6,1,9,0.00
2013-4-28,70.2,55.7,40.3,43.0,35.3,28.0,78,49,29,30.34,30.22,6,1,13,0.00
2013-4-29,55.2,53.5,51.0,50.0,46.0,36.0,91,76,52,30.27,30.22,4,1,8,0.03
2013-4-30,66.5,56.9,46.8,47.0,38.8,27.0,84,55,26,30.36,30.24,5,1,8,0.00
2013-5-1,67.7,55.2,40.6,45.0,36.5,29.0,84,52,26,30.51,30.36,5,1,11,0.00
2013-5-2,74.1,58.9,41.9,46.0,41.2,37.0,95,58,27,30.50,30.34,5,1,10,0.00
2013-5-3,66.1,56.3,46.1,43.0,39.2,35.0,86,55,35,30.48,30.37,7,1,9,0.00
2013-5-4,70.9,54.9,42.5,46.0,43.2,41.0,94,68,39,30.40,30.25,7,1,11,0.00
2013-5-5,63.3,51.1,39.2,45.0,40.3,37.0,95,70,42,30.33,30.24,6,1,10,0.00
2013-5-6,69.8,54.9,40.2,54.0,47.3,39.0,95,77,52,30.31,30.17,5,1,9,0.00
2013-5-7,73.5,61.0,47.2,58.0,53.0,46.0,97,77,55,30.20,30.11,3,1,7,0.00
2013-5-8,62.2,59.3,52.5,61.0,58.0,52.0,98,95,88,30.13,30.00,2,0,9,1.60
2013-5-9,68.5,58.1,50.4,60.0,55.8,50.0,99,92,67,30.04,29.91,3,0,4,0.90
2013-5-10,80.1,65.3,51.2,60.0,55.1,51.0,99,74,39,30.02,29.91,7,1,10,0.01
2013-5-11,69.4,63.5,60.4,65.0,61.7,57.0,97,93,85,29.92,29.72,8,1,12,0.35
2013-5-12,68.3,59.8,48.6,61.0,43.1,27.0,98,59,29,29.94,29.67,10,2,16,0.05
2013-5-13,56.2,47.5,38.6,34.0,29.4,25.0,81,51,32,30.14,29.95,16,2,16,0.00
2013-5-14,61.1,48.8,38.3,34.0,29.2,21.0,82,51,22,30.16,30.04,7,1,16,0.00
2013-5-15,69.5,54.9,38.5,58.0,45.2,32.0,87,71,51,30.09,29.70,4,1,11,0.00
2013-5-16,82.5,69.4,53.9,57.0,48.3,39.0,93,52,24,29.85,29.73,5,1,12,0.00
2013-5-17,72.7,63.4,53.5,46.0,42.0,37.0,71,47,33,30.22,29.85,4,1,15,0.00
2013-5-18,67.9,57.1,47.5,57.0,49.3,44.0,96,77,45,30.33,30.22,6,1,10,0.09
2013-5-19,57.8,56.2,54.6,57.0,55.4,54.0,98,97,93,30.35,30.21,3,0,8,0.48
2013-5-20,81.4,67.4,56.5,68.0,62.4,56.0,99,86,61,30.20,29.98,5,1,10,0.00
2013-5-21,89.1,75.7,61.8,71.0,67.3,61.0,99,77,52,30.00,29.84,10,1,11,0.00
2013-5-22,82.1,70.1,58.9,71.0,65.4,57.0,95,85,69,29.95,29.84,4,0,7,0.00
2013-5-23,77.1,69.1,64.6,70.0,67.1,64.0,98,93,76,29.90,29.77,5,1,12,2.93
2013-5-24,64.8,54.1,44.5,64.0,52.6,42.0,99,94,85,29.97,29.69,5,1,14,0.43
2013-5-25,53.0,47.5,42.7,45.0,42.2,39.0,97,82,66,30.02,29.91,10,3,19,0.50
2013-5-26,65.5,54.5,45.1,41.0,38.6,35.0,78,57,35,30.22,29.96,12,4,18,0.00
2013-5-27,76.3,61.9,48.5,44.0,37.9,34.0,64,44,23,30.26,30.13,9,2,12,0.00
2013-5-28,66.5,56.7,48.7,57.0,50.9,42.0,98,82,53,30.24,30.16,3,0,6,0.43
2013-5-29,85.0,68.6,57.2,70.0,63.1,57.0,99,84,60,30.17,30.01,6,1,8,0.01
2013-5-30,92.6,80.2,67.3,69.0,65.6,62.0,94,64,38,30.14,30.06,5,1,10,0.00
2013-5-31,93.1,80.9,65.9,71.0,65.3,62.0,93,62,37,30.14,30.00,13,1,13,0.00
2013-6-1,91.0,78.9,63.8,70.0,66.9,61.0,96,69,45,30.03,29.90,7,1,11,0.00
2013-6-2,88.0,78.0,70.2,71.0,68.8,67.0,94,75,54,29.92,29.77,7,2,15,0.12
2013-6-3,79.1,71.0,64.7,70.0,64.2,49.0,97,81,53,29.91,29.82,5,1,9,0.50
2013-6-4,75.2,64.4,54.5,47.0,43.9,40.0,67,49,31,30.13,29.91,5,1,15,0.00
2013-6-5,75.9,63.2,49.8,51.0,46.1,38.0,78,55,38,30.24,30.13,5,0,10,0.00
2013-6-6,70.1,60.6,51.3,59.0,54.2,48.0,96,81,48,30.17,30.05,4,0,9,0.23
2013-6-7,60.6,59.2,57.6,60.0,58.6,57.0,98,97,96,30.04,29.68,2,0,5,3.03
2013-6-8,76.4,65.5,55.5,64.0,59.7,55.0,99,83,61,30.07,29.63,6,1,10,0.21
2013-6-9,83.2,69.5,56.9,61.0,58.3,56.0,98,71,41,30.19,30.08,3,1,9,0.00
2013-6-10,70.0,64.0,60.7,66.0,61.7,59.0,98,92,85,30.18,29.87,3,0,7,1.10
2013-6-11,79.5,69.8,61.0,68.0,63.4,56.0,99,82,61,29.86,29.63,8,2,15,0.13
2013-6-12,76.9,68.3,59.3,58.0,54.8,52.0,86,63,45,29.87,29.73,7,2,16,0.00
2013-6-13,61.4,58.8,54.1,60.0,57.0,53.0,97,94,83,29.86,29.52,3,0,8,1.07
2013-6-14,75.9,61.1,51.5,58.0,53.8,51.0,97,79,52,29.90,29.57,5,1,11,0.37
2013-6-15,80.4,69.4,59.2,58.0,53.8,49.0,86,61,37,30.03,29.91,5,1,12,0.00
2013-6-16,80.8,69.2,55.9,65.0,57.5,50.0,87,68,44,30.00,29.78,5,1,17,0.00
2013-6-17,86.7,74.1,63.1,67.0,63.9,61.0,97,73,44,29.93,29.84,4,1,13,0.00
2013-6-18,82.8,68.6,60.9,68.0,63.1,59.0,96,84,54,29.92,29.84,3,0,5,0.29
2013-6-19,77.1,65.6,55.9,60.0,53.0,48.0,97,68,37,30.19,29.91,5,0,6,0.01
2013-6-20,81.5,67.5,52.7,59.0,55.4,52.0,97,69,38,30.28,30.19,7,1,10,0.00
2013-6-21,84.1,70.7,58.3,62.0,57.1,53.0,83,64,44,30.32,30.24,4,1,10,0.00
2013-6-22,84.7,71.8,57.5,65.0,58.8,54.0,90,65,45,30.27,30.14,10,1,18,0.00
2013-6-23,88.6,75.9,62.4,72.0,66.3,58.0,95,74,52,30.21,30.07,7,1,13,0.00
2013-6-24,94.0,80.3,70.2,72.0,69.1,65.0,95,71,42,30.08,29.94,6,1,10,0.00
2013-6-25,91.0,79.3,66.9,73.0,68.6,65.0,94,71,46,30.01,29.81,7,1,11,0.00
2013-6-26,83.1,77.6,71.9,72.0,69.0,67.0,90,75,65,29.86,29.79,4,1,13,0.00
2013-6-27,85.5,75.5,67.5,74.0,70.0,66.0,97,84,63,29.84,29.56,7,1,15,0.86
2013-6-28,86.3,77.7,71.9,72.0,69.6,66.0,96,78,56,29.57,29.48,7,2,15,0.02
2013-6-29,85.6,75.4,67.7,70.0,67.5,64.0,93,78,48,29.71,29.50,6,1,10,0.00
2013-6-30,85.0,74.5,67.0,75.0,71.3,66.0,98,90,72,29.93,29.72,3,0,9,0.02
2013-7-1,75.1,73.1,70.4,74.0,71.9,69.0,98,96,93,30.07,29.92,3,0,4,1.23
2013-7-2,82.8,76.1,72.2,78.0,73.4,71.0,98,91,78,30.19,30.06,5,1,10,0.04
2013-7-3,86.8,77.6,71.8,77.0,73.0,70.0,95,86,72,30.26,30.18,5,1,10,0.01
2013-7-4,90.2,81.3,74.4,75.0,73.8,72.0,97,79,58,30.27,30.16,6,1,10,0.00
2013-7-5,92.2,83.2,72.8,76.0,72.4,70.0,94,71,52,30.23,30.09,8,2,13,0.00
2013-7-6,91.9,82.9,74.0,75.0,73.3,72.0,94,74,56,30.15,30.04,5,1,10,0.00
2013-7-7,94.4,84.2,74.6,77.0,73.7,68.0,94,72,49,30.07,29.92,6,1,10,0.00
2013-7-8,88.4,78.0,70.0,71.0,68.4,67.0,90,74,52,30.05,29.97,5,1,8,0.00
2013-7-9,89.2,78.6,68.8,75.0,70.1,67.0,94,76,51,30.09,30.00,3,0,10,0.01
2013-7-10,85.8,79.6,73.2,77.0,72.4,69.0,90,79,65,30.02,29.81,6,1,12,0.12
2013-7-11,85.9,77.4,70.0,74.0,70.3,64.0,93,79,56,29.94,29.82,3,0,8,0.00
2013-7-12,78.6,72.3,65.9,70.0,65.4,62.0,95,79,68,30.14,29.95,2,0,6,0.16
2013-7-13,80.6,71.2,65.1,75.0,69.7,64.0,98,95,83,30.30,30.14,1,0,2,0.21
2013-7-14,91.4,80.6,71.7,77.0,73.4,71.0,99,80,56,30.36,30.24,4,1,10,0.00
2013-7-15,94.6,83.6,76.0,76.0,73.3,70.0,87,72,46,30.26,30.15,5,1,10,0.00
2013-7-16,93.5,82.8,71.2,72.0,68.9,67.0,88,65,42,30.22,30.15,4,0,8,0.00
2013-7-17,96.6,84.3,72.9,74.0,70.6,66.0,87,65,38,30.21,30.07,2,0,5,0.00
2013-7-18,96.6,86.0,74.5,76.0,73.2,70.0,90,68,45,30.08,29.97,5,1,8,0.00
2013-7-19,95.3,86.9,77.5,77.0,74.8,73.0,87,69,50,29.98,29.80,8,2,13,0.00
2013-7-20,91.7,83.3,77.2,76.0,72.1,69.0,82,69,53,29.86,29.73,8,2,16,0.00
2013-7-21,87.7,79.3,72.1,70.0,65.5,60.0,84,64,47,29.98,29.85,2,0,8,0.00
2013-7-22,85.3,75.1,69.2,75.0,70.5,63.0,97,86,66,29.98,29.83,4,0,5,0.44
2013-7-23,87.4,76.7,72.1,75.0,73.0,70.0,98,89,63,29.82,29.57,6,1,10,1.42
2013-7-24,80.1,73.6,65.8,72.0,65.0,53.0,99,76,54,29.96,29.63,7,1,11,0.01
2013-7-25,66.9,63.9,60.3,60.0,54.9,49.0,83,73,63,30.09,29.96,3,1,7,0.00
2013-7-26,82.9,72.1,64.9,64.0,61.2,59.0,84,70,50,30.06,30.01,3,1,5,0.00
2013-7-27,83.2,72.7,60.9,66.0,62.8,60.0,97,73,52,30.08,29.98,6,1,8,0.00
2013-7-28,77.9,70.5,64.0,70.0,66.3,62.0,98,87,68,30.01,29.95,5,0,5,0.26
2013-7-29,83.0,73.4,66.4,70.0,64.5,55.0,99,76,41,30.12,29.98,6,1,10,0.01
2013-7-30,78.3,69.2,57.8,61.0,57.9,55.0,92,69,49,30.19,30.12,5,1,8,0.00
2013-7-31,81.7,70.4,57.9,65.0,60.6,56.0,95,73,48,30.18,30.05,3,0,5,0.00
2013-8-1,73.3,66.8,64.0,67.0,64.8,62.0,98,93,75,30.07,29.86,4,0,12,0.49
2013-8-2,82.3,72.7,62.1,67.0,63.8,60.0,99,76,48,29.93,29.82,6,1,16,0.01
2013-8-3,78.9,69.4,63.7,68.0,63.6,58.0,94,82,64,29.93,29.85,5,1,10,0.08
2013-8-4,78.5,69.9,59.6,63.0,56.7,51.0,92,65,43,29.99,29.88,9,1,13,0.00
2013-8-5,78.8,67.5,58.4,55.0,50.9,45.0,79,58,36,30.08,29.99,3,1,7,0.00
2013-8-6,82.0,68.3,54.7,61.0,56.2,53.0,92,68,41,30.15,30.06,5,1,12,0.00
2013-8-7,78.8,69.9,62.6,68.0,63.9,58.0,91,81,63,30.17,30.08,8,1,12,0.02
2013-8-8,83.3,73.1,68.7,75.0,70.5,67.0,98,91,73,30.09,30.03,4,1,9,0.40
2013-8-9,85.1,75.2,71.4,77.0,72.9,71.0,98,93,70,30.04,29.81,7,1,12,0.48
2013-8-10,82.9,73.2,63.9,71.0,63.6,56.0,97,74,48,30.07,29.88,7,1,10,0.00
2013-8-11,78.6,69.9,56.8,64.0,57.9,52.0,89,67,47,30.15,30.05,6,0,7,0.00
2013-8-12,83.6,72.9,65.2,66.0,63.5,59.0,95,75,45,30.06,29.95,3,0,6,0.00
2013-8-13,79.8,70.4,65.9,69.0,66.6,65.0,98,89,68,29.95,29.72,3,0,10,0.70
2013-8-14,73.1,64.9,57.2,65.0,53.0,47.0,96,67,52,30.07,29.77,7,2,19,0.00
2013-8-15,76.2,64.5,53.0,54.0,51.7,49.0,88,66,41,30.17,30.07,3,0,8,0.00
2013-8-16,81.0,67.3,53.7,59.0,54.9,52.0,96,68,40,30.23,30.15,4,0,6,0.00
2013-8-17,82.6,68.7,55.5,61.0,57.7,54.0,94,70,43,30.30,30.23,3,0,5,0.00
2013-8-18,75.5,68.0,61.4,66.0,61.1,56.0,90,79,61,30.29,30.15,1,0,3,0.00
2013-8-19,79.0,69.6,60.5,68.0,62.8,59.0,97,80,59,30.15,30.05,4,0,9,0.00
2013-8-20,86.3,73.6,60.3,68.0,63.8,60.0,98,75,43,30.15,30.07,5,0,8,0.00
2013-8-21,88.5,75.7,61.8,67.0,62.9,60.0,94,68,40,30.20,30.07,3,0,8,0.00
2013-8-22,76.2,71.3,67.7,72.0,68.8,64.0,97,91,81,30.08,29.89,4,0,8,0.44
2013-8-23,81.6,72.5,65.7,68.0,61.3,52.0,94,70,47,30.13,29.90,5,0,6,0.00
2013-8-24,82.7,68.1,57.3,58.0,54.0,51.0,88,63,40,30.37,30.14,2,0,5,0.00
2013-8-25,82.1,68.8,53.9,59.0,55.1,51.0,98,67,34,30.42,30.25,4,0,10,0.00
2013-8-26,77.0,71.0,65.8,69.0,62.7,57.0,95,75,68,30.25,29.93,5,1,9,0.11
2013-8-27,85.6,75.1,69.0,71.0,69.0,67.0,97,82,59,29.93,29.83,4,1,7,0.05
2013-8-28,86.4,72.5,66.4,72.0,69.1,66.0,98,90,58,29.92,29.87,7,0,10,0.08
2013-8-29,79.9,71.2,67.2,70.0,67.7,64.0,99,89,69,30.05,29.91,2,0,3,0.03
2013-8-30,85.1,74.7,67.6,71.0,67.8,65.0,92,80,55,30.05,29.88,6,1,10,0.00
2013-8-31,85.3,77.3,71.1,74.0,71.7,69.0,94,83,66,29.88,29.80,6,1,9,0.00
2013-9-1,82.0,76.0,72.1,76.0,72.9,70.0,97,90,80,29.88,29.81,4,0,9,0.07
2013-9-2,80.1,74.7,71.6,76.0,72.6,70.0,99,93,80,29.83,29.73,4,0,5,0.10
2013-9-3,79.6,71.4,63.6,71.0,63.8,57.0,99,79,49,29.91,29.73,6,1,12,0.29
2013-9-4,82.1,69.5,60.3,61.0,57.6,53.0,90,68,42,30.02,29.91,5,1,10,0.00
2013-9-5,75.9,66.5,54.1,61.0,53.2,42.0,92,66,32,30.18,29.94,7,1,10,0.00
2013-9-6,72.2,59.7,50.8,48.0,44.3,41.0,82,59,37,30.29,30.16,3,0,6,0.00
2013-9-7,78.5,63.9,47.2,55.0,49.2,43.0,92,63,35,30.16,29.92,7,1,8,0.00
2013-9-8,81.0,69.6,59.4,65.0,54.3,43.0,79,60,33,30.11,29.84,5,1,14,0.00
2013-9-9,71.3,61.1,48.2,58.0,49.0,43.0,88,66,44,30.27,30.11,5,1,10,0.00
2013-9-10,85.1,73.7,63.9,74.0,68.4,59.0,96,84,69,30.18,30.07,6,1,11,0.06
2013-9-11,94.3,82.3,71.1,78.0,73.8,69.0,97,77,54,30.13,29.98,9,1,12,0.00
2013-9-12,85.7,73.7,67.1,76.0,70.4,66.0,98,89,68,30.00,29.70,11,1,15,1.84
2013-9-13,76.3,66.1,56.1,67.0,59.8,49.0,99,81,58,29.87,29.64,6,1,12,0.05
2013-9-14,65.3,57.0,50.7,50.0,47.4,45.0,84,71,57,30.15,29.87,6,1,9,0.00
2013-9-15,70.8,56.9,43.3,52.0,46.8,42.0,97,72,43,30.24,30.11,5,0,7,0.00
2013-9-16,71.8,61.1,53.5,57.0,53.4,45.0,95,77,51,30.28,30.05,5,0,7,0.00
2013-9-17,64.7,53.6,46.4,47.0,41.5,38.0,90,65,44,30.47,30.29,3,1,8,0.00
2013-9-18,71.9,56.1,41.5,52.0,45.5,41.0,98,72,36,30.39,30.21,3,0,7,0.00
2013-9-19,77.7,60.0,44.4,54.0,50.0,43.0,98,74,40,30.23,30.09,3,0,8,0.00
2013-9-20,80.1,62.6,48.6,61.0,54.8,48.0,99,79,45,30.12,30.02,5,0,8,0.00
2013-9-21,75.7,64.5,53.0,67.0,60.7,52.0,99,88,67,30.05,29.68,10,1,15,0.62
2013-9-22,67.7,60.3,52.1,67.0,51.6,41.0,98,75,53,29.94,29.68,7,2,13,0.50
2013-9-23,66.0,54.3,44.1,47.0,43.1,41.0,90,68,46,30.08,29.94,5,1,10,0.00
2013-9-24,71.8,54.7,40.6,50.0,44.4,39.0,95,71,40,30.09,29.91,5,1,10,0.00
2013-9-25,72.9,57.1,43.3,54.0,47.6,42.0,97,73,42,29.99,29.91,2,0,6,0.00
2013-9-26,70.1,58.9,50.1,58.0,53.2,49.0,95,82,57,30.14,29.97,3,0,6,0.00
2013-9-27,66.6,57.7,49.3,55.0,51.6,48.0,95,81,62,30.30,30.14,2,0,4,0.00
2013-9-28,72.5,60.0,49.7,56.0,52.6,48.0,97,78,52,30.36,30.27,2,0,5,0.00
2013-9-29,72.4,58.5,49.7,58.0,53.0,49.0,98,83,54,30.27,30.11,2,0,4,0.00
2013-9-30,75.5,58.3,47.2,56.0,51.7,47.0,99,81,50,30.12,30.00,2,0,5,0.00
2013-10-1,80.1,62.9,47.6,61.0,54.7,47.0,99,78,43,30.04,29.92,4,0,6,0.01
2013-10-2,82.1,68.2,55.8,64.0,59.3,54.0,94,75,52,30.04,29.93,6,1,14,0.00
2013-10-3,78.4,65.1,52.9,60.0,56.4,51.0,97,76,39,30.15,30.04,4,0,7,0.00
2013-10-4,85.3,69.7,58.3,69.0,63.8,57.0,96,83,53,30.09,29.99,5,0,9,0.00
2013-10-5,75.9,67.3,63.0,66.0,63.6,61.0,94,88,72,30.12,30.05,1,0,4,0.00
2013-10-6,66.0,64.4,63.4,65.0,63.6,63.0,99,97,93,30.13,30.06,2,0,5,0.03
2013-10-7,72.6,65.8,57.1,71.0,64.2,50.0,99,94,77,30.06,29.76,15,1,16,0.54
2013-10-8,66.4,55.7,48.0,50.0,46.9,43.0,95,74,47,30.37,30.01,2,0,6,0.00
2013-10-9,62.6,53.8,46.9,49.0,45.7,41.0,90,75,53,30.45,30.34,3,0,4,0.00
2013-10-10,59.7,55.0,50.6,53.0,49.7,46.0,88,82,77,30.34,30.13,3,1,5,0.00
2013-10-11,66.5,61.8,57.0,60.0,56.1,52.0,87,82,78,30.13,30.06,2,1,7,0.00
2013-10-12,73.7,63.1,55.9,58.0,50.1,42.0,87,64,34,30.33,30.12,3,1,8,0.00
2013-10-13,65.2,56.4,50.1,53.0,50.2,48.0,94,81,62,30.43,30.32,3,0,7,0.00
2013-10-14,67.5,55.2,49.1,51.0,49.2,47.0,96,82,51,30.40,30.27,3,0,5,0.00
2013-10-15,72.5,56.9,46.6,57.0,50.4,46.0,99,81,51,30.29,30.16,2,0,5,0.00
2013-10-16,64.6,57.2,49.1,58.0,53.6,47.0,95,88,77,30.16,29.95,3,0,4,0.00
2013-10-17,75.5,64.8,59.8,63.0,60.4,58.0,98,86,59,29.95,29.71,5,1,9,0.02
2013-10-18,67.0,59.2,49.1,63.0,48.0,43.0,96,68,43,30.00,29.68,10,2,17,0.00
2013-10-19,62.6,53.0,40.7,53.0,45.5,39.0,96,77,51,30.01,29.77,5,0,9,0.04
2013-10-20,62.0,52.2,45.0,52.0,41.2,37.0,95,68,40,30.09,29.78,7,1,14,0.00
2013-10-21,66.7,52.2,37.8,45.0,40.0,35.0,96,67,32,30.18,30.01,7,1,12,0.00
2013-10-22,61.7,51.4,41.1,51.0,45.8,40.0,98,82,67,30.01,29.77,5,0,10,0.00
2013-10-23,54.1,44.6,36.2,42.0,37.8,35.0,97,79,51,29.85,29.65,6,0,9,0.00
2013-10-24,52.9,43.8,37.1,36.0,31.1,27.0,85,63,39,30.03,29.77,10,2,15,0.00
2013-10-25,51.8,41.9,34.0,34.0,31.3,29.0,87,68,45,30.25,30.03,6,1,14,0.00
2013-10-26,53.9,43.5,30.2,34.0,31.4,29.0,97,66,39,30.25,29.93,14,2,20,0.00
2013-10-27,57.2,47.9,40.1,34.0,32.6,31.0,75,57,38,30.15,29.88,9,1,15,0.00
2013-10-28,61.3,46.7,33.2,36.0,33.5,31.0,91,64,37,30.36,30.15,9,1,14,0.00
2013-10-29,52.3,44.2,37.2,34.0,31.4,29.0,84,62,44,30.46,30.36,2,0,6,0.00
2013-10-30,56.1,46.0,36.1,50.0,41.2,33.0,97,83,69,30.39,30.22,3,0,6,0.00
2013-10-31,61.6,53.1,41.0,59.0,51.5,40.0,98,94,84,30.27,29.82,5,0,14,0.03
2013-11-1,70.2,63.4,52.3,64.0,57.4,51.0,95,82,53,29.81,29.56,12,3,23,0.16
2013-11-2,66.9,55.4,47.5,51.0,45.4,39.0,97,72,47,29.81,29.64,5,1,10,0.00
2013-11-3,49.5,42.5,33.9,43.0,32.3,18.0,87,68,52,30.48,29.81,5,1,9,0.00
2013-11-4,45.7,35.7,29.9,27.0,19.8,16.0,77,54,31,30.70,30.49,6,1,8,0.00
2013-11-5,53.1,43.0,33.1,41.0,34.6,26.0,86,73,59,30.70,30.52,4,0,6,0.00
2013-11-6,59.0,50.0,39.0,51.0,44.3,37.0,96,82,62,30.53,30.10,6,1,11,0.00
2013-11-7,60.8,51.4,37.2,57.0,47.0,30.0,96,85,63,30.10,29.77,7,2,15,0.08
2013-11-8,47.2,40.8,34.7,32.0,28.2,24.0,83,62,43,30.24,29.95,15,2,22,0.00
2013-11-9,49.3,41.7,34.3,33.0,27.7,25.0,74,59,40,30.32,30.03,6,2,12,0.00
2013-11-10,58.7,46.4,38.3,40.0,34.2,28.0,83,64,39,30.07,29.84,11,3,21,0.01
2013-11-11,50.6,46.2,39.2,33.0,29.1,26.0,59,52,45,30.22,29.98,10,2,13,0.00
2013-11-12,49.4,36.1,28.0,36.0,23.6,15.0,91,61,50,30.32,29.96,6,2,16,0.03
2013-11-13,38.2,30.3,25.8,19.0,14.9,10.0,73,55,32,30.40,30.30,9,2,12,0.00
2013-11-14,52.0,38.8,26.1,21.0,18.5,16.0,76,48,26,30.30,30.18,8,1,15,0.00
2013-11-15,56.8,42.3,28.6,28.0,23.4,17.0,74,50,28,30.28,30.18,6,1,8,0.00
2013-11-16,61.6,48.3,36.7,45.0,38.4,26.0,97,71,47,30.36,30.26,4,0,8,0.00
2013-11-17,57.9,52.1,43.6,57.0,51.4,43.0,98,97,95,30.31,29.82,6,0,8,0.03
2013-11-18,63.8,57.5,48.3,60.0,42.1,27.0,98,61,32,29.81,29.61,13,3,20,0.25
2013-11-19,47.8,40.8,32.3,30.0,25.2,21.0,64,54,47,30.38,29.80,15,5,21,0.00
2013-11-20,43.4,33.4,28.1,21.0,17.0,12.0,71,53,29,30.65,30.38,9,2,11,0.00
2013-11-21,49.3,38.4,25.0,38.0,28.3,18.0,78,68,54,30.66,30.42,4,0,9,0.00
2013-11-22,57.0,49.8,44.3,50.0,45.5,38.0,96,85,74,30.42,29.93,5,1,9,0.08
2013-11-23,52.6,39.0,27.0,47.0,24.7,5.0,86,58,36,30.06,29.92,17,5,23,0.01
2013-11-24,27.6,23.1,19.8,11.0,5.0,-2.0,57,47,28,30.40,30.04,13,5,25,0.00
2013-11-25,35.3,26.9,19.1,15.0,11.6,7.0,67,54,39,30.51,30.36,9,2,13,0.00
2013-11-26,40.2,33.7,30.6,40.0,24.0,14.0,98,70,50,30.36,29.84,8,1,9,0.61
2013-11-27,59.3,44.3,31.7,59.0,41.9,20.0,99,91,63,29.82,29.38,11,4,23,2.93
2013-11-28,32.4,28.5,23.7,20.0,13.7,10.0,68,55,41,30.51,29.75,15,4,25,0.00
2013-11-29,36.5,29.6,24.6,21.0,17.7,11.0,76,62,51,30.77,30.50,5,1,11,0.00
2013-11-30,33.2,27.7,19.7,25.0,16.8,11.0,75,64,49,30.80,30.42,6,1,6,0.00
2013-12-1,47.2,38.4,30.1,34.0,30.4,26.0,89,74,54,30.42,30.04,2,0,5,0.00
2013-12-2,45.1,37.9,33.0,37.0,33.4,29.0,94,84,73,30.04,29.92,4,0,4,0.00
2013-12-3,51.2,38.4,30.4,40.0,34.4,30.0,98,86,61,30.04,29.91,2,0,4,0.00
2013-12-4,49.2,40.9,31.2,39.0,35.5,30.0,97,82,64,30.18,30.04,3,0,5,0.00
2013-12-5,53.9,49.2,44.0,54.0,48.3,40.0,99,96,82,30.16,29.96,1,0,4,0.05
2013-12-6,54.5,44.9,33.7,54.0,44.0,32.0,99,96,92,30.18,29.90,7,2,11,0.80
2013-12-7,39.6,34.1,28.4,33.0,26.5,16.0,96,75,57,30.55,30.12,9,2,15,0.05
2013-12-8,29.8,27.7,23.9,26.0,18.9,15.0,94,70,60,30.63,30.44,6,1,12,0.00
2013-12-9,35.6,31.9,27.4,35.0,31.2,26.0,98,97,94,30.42,30.00,5,1,8,0.13
2013-12-10,33.7,29.8,23.5,32.0,27.9,19.0,98,92,82,30.14,29.90,2,0,6,0.00
2013-12-11,32.3,25.9,21.0,20.0,17.4,15.0,88,71,55,30.34,30.15,8,2,14,0.00
2013-12-12,25.3,21.8,18.7,16.0,8.4,5.0,72,57,45,30.38,30.19,9,2,13,0.00
2013-12-13,33.1,25.3,17.2,19.0,12.4,5.0,75,59,49,30.37,30.15,12,2,18,0.00
2013-12-14,25.9,20.2,16.5,22.0,17.1,15.0,95,87,71,30.55,29.89,6,2,8,0.00
2013-12-15,35.3,31.0,23.6,31.0,27.3,22.0,96,87,74,29.86,29.57,9,2,16,0.04
2013-12-16,29.7,24.2,14.7,23.0,11.7,8.0,80,60,46,30.27,29.85,11,2,18,0.00
2013-12-17,22.9,19.9,14.5,22.0,16.5,8.0,94,87,70,30.26,29.99,4,1,7,0.00
2013-12-18,35.4,26.4,15.7,23.0,19.5,14.0,94,76,57,30.19,29.97,8,1,18,0.03
2013-12-19,44.6,33.2,20.5,29.0,24.3,17.0,89,71,48,30.21,30.05,8,1,11,0.21
2013-12-20,48.5,41.2,32.5,36.0,31.5,28.0,85,69,54,30.14,29.99,5,1,11,0.00
2013-12-21,57.7,50.1,40.3,53.0,44.4,36.0,94,81,66,30.02,29.92,7,1,13,0.00
2013-12-22,67.2,62.5,54.7,63.0,58.5,52.0,94,87,77,29.98,29.83,12,3,22,0.02
2013-12-23,59.0,52.0,38.5,57.0,50.0,30.0,98,93,71,30.16,29.94,9,2,17,0.75
2013-12-24,39.2,32.5,22.6,29.0,22.2,8.0,92,66,50,30.36,30.12,12,3,23,0.00
2013-12-25,27.1,21.5,15.3,15.0,8.9,6.0,73,59,48,30.56,30.37,8,2,16,0.00
2013-12-26,34.1,28.5,22.8,27.0,22.1,16.0,87,77,69,30.47,30.19,6,1,9,0.00
2013-12-27,37.7,31.6,24.7,25.0,22.0,20.0,83,69,52,30.39,30.29,8,1,14,0.00
2013-12-28,51.9,38.6,27.1,29.0,25.7,22.0,83,62,38,30.31,30.10,9,2,14,0.00
2013-12-29,41.7,38.5,35.0,39.0,33.5,28.0,97,83,67,30.10,29.48,7,2,16,1.07
2013-12-30,40.5,32.5,19.1,36.0,24.5,8.0,94,73,54,30.23,29.71,11,2,19,0.00
2013-12-31,28.7,22.7,16.5,24.0,12.8,8.0,89,67,49,30.30,30.09,8,2,14,0.00
2014-1-1,30.8,24.8,15.3,21.0,14.2,7.0,81,65,54,30.45,30.30,5,1,11,0.00
2014-1-2,27.6,20.2,9.2,21.0,16.5,7.0,91,85,73,30.30,29.74,7,3,11,0.00